sensor_id;sensor_type;location;lat;lon;timestamp;P1;durP1;ratioP1;P2;durP2;ratioP2
30243;SDS011;61465;53.652;9.792;2022-08-03T00:01:37;5.38;;;4.88;;
30243;SDS011;61465;53.652;9.792;2022-08-03T00:04:05;6.97;;;5.63;;
30243;SDS011;61465;53.652;9.792;2022-08-03T00:06:31;7.40;;;5.50;;
30243;SDS011;61465;53.652;9.792;2022-08-03T00:08:57;7.57;;;5.30;;
30243;SDS011;61465;53.652;9.792;2022-08-03T00:11:22;10.83;;;4.97;;
30243;SDS011;61465;53.652;9.792;2022-08-03T00:13:48;8.10;;;5.17;;
30243;SDS011;61465;53.652;9.792;2022-08-03T00:16:14;9.20;;;6.07;;
30243;SDS011;61465;53.652;9.792;2022-08-03T00:18:40;8.20;;;5.23;;
30243;SDS011;61465;53.652;9.792;2022-08-03T00:21:05;7.10;;;4.83;;
30243;SDS011;61465;53.652;9.792;2022-08-03T00:23:32;7.40;;;5.80;;
30243;SDS011;61465;53.652;9.792;2022-08-03T00:25:58;8.65;;;6.65;;
30243;SDS011;61465;53.652;9.792;2022-08-03T00:28:24;10.03;;;6.87;;
30243;SDS011;61465;53.652;9.792;2022-08-03T00:30:49;8.67;;;6.20;;
30243;SDS011;61465;53.652;9.792;2022-08-03T00:33:15;12.63;;;7.80;;
30243;SDS011;61465;53.652;9.792;2022-08-03T00:35:40;8.90;;;6.30;;
30243;SDS011;61465;53.652;9.792;2022-08-03T00:38:06;7.33;;;5.83;;
30243;SDS011;61465;53.652;9.792;2022-08-03T00:40:32;8.03;;;5.80;;
30243;SDS011;61465;53.652;9.792;2022-08-03T00:42:59;7.33;;;6.03;;
30243;SDS011;61465;53.652;9.792;2022-08-03T00:45:37;7.75;;;6.20;;
30243;SDS011;61465;53.652;9.792;2022-08-03T00:48:06;6.90;;;6.13;;
30243;SDS011;61465;53.652;9.792;2022-08-03T00:50:34;8.80;;;6.47;;
30243;SDS011;61465;53.652;9.792;2022-08-03T00:53:01;8.65;;;6.00;;
30243;SDS011;61465;53.652;9.792;2022-08-03T00:55:29;6.55;;;5.93;;
30243;SDS011;61465;53.652;9.792;2022-08-03T00:57:55;7.30;;;6.30;;
30243;SDS011;61465;53.652;9.792;2022-08-03T01:00:25;8.55;;;6.68;;
30243;SDS011;61465;53.652;9.792;2022-08-03T01:02:52;8.90;;;6.63;;
30243;SDS011;61465;53.652;9.792;2022-08-03T01:05:18;6.18;;;5.57;;
30243;SDS011;61465;53.652;9.792;2022-08-03T01:10:48;8.25;;;6.10;;
30243;SDS011;61465;53.652;9.792;2022-08-03T01:13:32;8.00;;;6.47;;
30243;SDS011;61465;53.652;9.792;2022-08-03T01:16:14;7.53;;;6.78;;
30243;SDS011;61465;53.652;9.792;2022-08-03T01:21:26;7.45;;;6.40;;
30243;SDS011;61465;53.652;9.792;2022-08-03T01:24:05;8.70;;;6.55;;
30243;SDS011;61465;53.652;9.792;2022-08-03T01:29:38;12.75;;;6.68;;
30243;SDS011;61465;53.652;9.792;2022-08-03T01:32:33;9.52;;;6.20;;
30243;SDS011;61465;53.652;9.792;2022-08-03T01:35:21;15.20;;;6.75;;
30243;SDS011;61465;53.652;9.792;2022-08-03T01:37:57;8.57;;;6.60;;
30243;SDS011;61465;53.652;9.792;2022-08-03T01:40:43;10.35;;;7.03;;
30243;SDS011;61465;53.652;9.792;2022-08-03T01:43:13;8.77;;;7.25;;
30243;SDS011;61465;53.652;9.792;2022-08-03T01:45:41;8.18;;;6.35;;
30243;SDS011;61465;53.652;9.792;2022-08-03T01:48:07;10.60;;;7.23;;
30243;SDS011;61465;53.652;9.792;2022-08-03T01:50:35;9.45;;;6.38;;
30243;SDS011;61465;53.652;9.792;2022-08-03T01:53:01;11.88;;;7.90;;
30243;SDS011;61465;53.652;9.792;2022-08-03T01:55:27;9.37;;;7.13;;
30243;SDS011;61465;53.652;9.792;2022-08-03T01:57:56;8.93;;;6.55;;
30243;SDS011;61465;53.652;9.792;2022-08-03T02:00:26;9.40;;;6.53;;
30243;SDS011;61465;53.652;9.792;2022-08-03T02:02:52;8.17;;;7.00;;
30243;SDS011;61465;53.652;9.792;2022-08-03T02:05:19;9.02;;;7.18;;
30243;SDS011;61465;53.652;9.792;2022-08-03T02:07:45;13.37;;;7.83;;
30243;SDS011;61465;53.652;9.792;2022-08-03T02:10:13;9.93;;;7.85;;
30243;SDS011;61465;53.652;9.792;2022-08-03T02:12:43;11.20;;;7.72;;
30243;SDS011;61465;53.652;9.792;2022-08-03T02:15:10;8.90;;;7.78;;
30243;SDS011;61465;53.652;9.792;2022-08-03T02:17:36;9.50;;;7.13;;
30243;SDS011;61465;53.652;9.792;2022-08-03T02:20:02;10.75;;;7.25;;
30243;SDS011;61465;53.652;9.792;2022-08-03T02:22:29;9.55;;;6.93;;
30243;SDS011;61465;53.652;9.792;2022-08-03T02:24:57;9.68;;;6.88;;
30243;SDS011;61465;53.652;9.792;2022-08-03T02:27:23;9.37;;;6.47;;
30243;SDS011;61465;53.652;9.792;2022-08-03T02:29:53;7.63;;;6.70;;
30243;SDS011;61465;53.652;9.792;2022-08-03T02:32:27;8.43;;;6.18;;
30243;SDS011;61465;53.652;9.792;2022-08-03T02:34:55;8.82;;;6.70;;
30243;SDS011;61465;53.652;9.792;2022-08-03T02:37:25;8.30;;;6.72;;
30243;SDS011;61465;53.652;9.792;2022-08-03T02:39:56;12.48;;;7.28;;
30243;SDS011;61465;53.652;9.792;2022-08-03T02:42:28;8.27;;;6.53;;
30243;SDS011;61465;53.652;9.792;2022-08-03T02:44:57;9.98;;;7.25;;
30243;SDS011;61465;53.652;9.792;2022-08-03T02:47:26;10.85;;;7.45;;
30243;SDS011;61465;53.652;9.792;2022-08-03T02:49:53;9.38;;;6.85;;
30243;SDS011;61465;53.652;9.792;2022-08-03T02:52:20;7.78;;;6.60;;
30243;SDS011;61465;53.652;9.792;2022-08-03T02:54:48;10.88;;;7.40;;
30243;SDS011;61465;53.652;9.792;2022-08-03T02:57:17;8.43;;;6.95;;
30243;SDS011;61465;53.652;9.792;2022-08-03T02:59:44;10.35;;;7.70;;
30243;SDS011;61465;53.652;9.792;2022-08-03T03:02:12;10.38;;;7.15;;
30243;SDS011;61465;53.652;9.792;2022-08-03T03:04:39;9.07;;;6.90;;
30243;SDS011;61465;53.652;9.792;2022-08-03T03:07:07;9.93;;;7.53;;
30243;SDS011;61465;53.652;9.792;2022-08-03T03:09:33;11.80;;;7.80;;
30243;SDS011;61465;53.652;9.792;2022-08-03T03:11:59;7.93;;;7.13;;
30243;SDS011;61465;53.652;9.792;2022-08-03T03:14:25;9.63;;;8.13;;
30243;SDS011;61465;53.652;9.792;2022-08-03T03:16:51;7.65;;;6.85;;
30243;SDS011;61465;53.652;9.792;2022-08-03T03:19:18;11.07;;;7.65;;
30243;SDS011;61465;53.652;9.792;2022-08-03T03:21:45;9.27;;;7.88;;
30243;SDS011;61465;53.652;9.792;2022-08-03T03:24:11;10.60;;;8.00;;
30243;SDS011;61465;53.652;9.792;2022-08-03T03:26:37;11.35;;;7.88;;
30243;SDS011;61465;53.652;9.792;2022-08-03T03:29:03;9.52;;;7.70;;
30243;SDS011;61465;53.652;9.792;2022-08-03T03:31:29;11.07;;;8.93;;
30243;SDS011;61465;53.652;9.792;2022-08-03T03:33:56;14.80;;;8.63;;
30243;SDS011;61465;53.652;9.792;2022-08-03T03:36:22;14.18;;;8.38;;
30243;SDS011;61465;53.652;9.792;2022-08-03T03:38:48;10.07;;;7.93;;
30243;SDS011;61465;53.652;9.792;2022-08-03T03:41:13;11.27;;;8.00;;
30243;SDS011;61465;53.652;9.792;2022-08-03T03:43:39;10.85;;;8.50;;
30243;SDS011;61465;53.652;9.792;2022-08-03T03:46:05;10.30;;;8.13;;
30243;SDS011;61465;53.652;9.792;2022-08-03T03:48:31;13.32;;;8.00;;
30243;SDS011;61465;53.652;9.792;2022-08-03T03:50:57;10.50;;;8.25;;
30243;SDS011;61465;53.652;9.792;2022-08-03T03:53:23;10.60;;;8.20;;
30243;SDS011;61465;53.652;9.792;2022-08-03T03:55:50;11.85;;;8.48;;
30243;SDS011;61465;53.652;9.792;2022-08-03T03:58:16;15.43;;;8.25;;
30243;SDS011;61465;53.652;9.792;2022-08-03T04:00:42;9.57;;;8.17;;
30243;SDS011;61465;53.652;9.792;2022-08-03T04:03:09;12.90;;;8.57;;
30243;SDS011;61465;53.652;9.792;2022-08-03T04:08:20;11.60;;;8.13;;
30243;SDS011;61465;53.652;9.792;2022-08-03T04:13:36;12.35;;;9.25;;
30243;SDS011;61465;53.652;9.792;2022-08-03T04:16:05;11.10;;;8.95;;
30243;SDS011;61465;53.652;9.792;2022-08-03T04:18:33;13.90;;;9.27;;
30243;SDS011;61465;53.652;9.792;2022-08-03T04:21:02;16.90;;;8.90;;
30243;SDS011;61465;53.652;9.792;2022-08-03T04:23:32;12.30;;;8.77;;
30243;SDS011;61465;53.652;9.792;2022-08-03T04:26:00;17.80;;;8.43;;
30243;SDS011;61465;53.652;9.792;2022-08-03T04:28:27;10.57;;;8.25;;
30243;SDS011;61465;53.652;9.792;2022-08-03T04:30:55;10.93;;;7.95;;
30243;SDS011;61465;53.652;9.792;2022-08-03T04:33:21;12.40;;;8.18;;
30243;SDS011;61465;53.652;9.792;2022-08-03T04:35:49;8.73;;;7.85;;
30243;SDS011;61465;53.652;9.792;2022-08-03T04:38:19;8.93;;;7.82;;
30243;SDS011;61465;53.652;9.792;2022-08-03T04:40:46;10.82;;;8.02;;
30243;SDS011;61465;53.652;9.792;2022-08-03T04:43:12;10.18;;;7.97;;
30243;SDS011;61465;53.652;9.792;2022-08-03T04:45:40;10.50;;;8.73;;
30243;SDS011;61465;53.652;9.792;2022-08-03T04:48:06;15.90;;;8.07;;
30243;SDS011;61465;53.652;9.792;2022-08-03T04:50:32;18.83;;;11.90;;
30243;SDS011;61465;53.652;9.792;2022-08-03T04:52:58;13.80;;;9.47;;
30243;SDS011;61465;53.652;9.792;2022-08-03T04:55:28;16.00;;;8.90;;
30243;SDS011;61465;53.652;9.792;2022-08-03T04:57:54;10.38;;;8.00;;
30243;SDS011;61465;53.652;9.792;2022-08-03T05:00:20;8.90;;;7.85;;
30243;SDS011;61465;53.652;9.792;2022-08-03T05:02:46;13.20;;;7.45;;
30243;SDS011;61465;53.652;9.792;2022-08-03T05:05:12;12.07;;;9.02;;
30243;SDS011;61465;53.652;9.792;2022-08-03T05:07:39;11.57;;;8.02;;
30243;SDS011;61465;53.652;9.792;2022-08-03T05:10:06;11.52;;;7.45;;
30243;SDS011;61465;53.652;9.792;2022-08-03T05:12:33;12.35;;;7.38;;
30243;SDS011;61465;53.652;9.792;2022-08-03T05:14:59;8.43;;;7.40;;
30243;SDS011;61465;53.652;9.792;2022-08-03T05:17:26;8.02;;;7.20;;
30243;SDS011;61465;53.652;9.792;2022-08-03T05:19:53;8.43;;;7.35;;
30243;SDS011;61465;53.652;9.792;2022-08-03T05:22:20;10.82;;;8.63;;
30243;SDS011;61465;53.652;9.792;2022-08-03T05:24:45;10.88;;;8.77;;
30243;SDS011;61465;53.652;9.792;2022-08-03T05:27:11;8.90;;;7.90;;
30243;SDS011;61465;53.652;9.792;2022-08-03T05:29:45;12.13;;;7.93;;
30243;SDS011;61465;53.652;9.792;2022-08-03T05:32:15;9.30;;;7.40;;
30243;SDS011;61465;53.652;9.792;2022-08-03T05:34:41;14.15;;;7.93;;
30243;SDS011;61465;53.652;9.792;2022-08-03T05:37:07;9.33;;;7.13;;
30243;SDS011;61465;53.652;9.792;2022-08-03T05:39:33;9.30;;;7.03;;
30243;SDS011;61465;53.652;9.792;2022-08-03T05:41:59;10.18;;;6.50;;
30243;SDS011;61465;53.652;9.792;2022-08-03T05:44:25;8.90;;;7.60;;
30243;SDS011;61465;53.652;9.792;2022-08-03T05:46:51;9.23;;;6.63;;
30243;SDS011;61465;53.652;9.792;2022-08-03T05:49:17;10.17;;;6.73;;
30243;SDS011;61465;53.652;9.792;2022-08-03T05:51:43;8.73;;;6.70;;
30243;SDS011;61465;53.652;9.792;2022-08-03T05:54:08;7.70;;;6.90;;
30243;SDS011;61465;53.652;9.792;2022-08-03T05:56:34;8.10;;;6.63;;
30243;SDS011;61465;53.652;9.792;2022-08-03T05:59:01;10.20;;;6.07;;
30243;SDS011;61465;53.652;9.792;2022-08-03T06:01:27;8.02;;;5.95;;
30243;SDS011;61465;53.652;9.792;2022-08-03T06:03:56;6.60;;;5.82;;
30243;SDS011;61465;53.652;9.792;2022-08-03T06:06:22;9.10;;;6.07;;
30243;SDS011;61465;53.652;9.792;2022-08-03T06:08:48;7.37;;;5.57;;
30243;SDS011;61465;53.652;9.792;2022-08-03T06:11:13;10.93;;;6.37;;
30243;SDS011;61465;53.652;9.792;2022-08-03T06:13:40;7.65;;;6.50;;
30243;SDS011;61465;53.652;9.792;2022-08-03T06:16:07;10.90;;;5.32;;
30243;SDS011;61465;53.652;9.792;2022-08-03T06:18:33;6.07;;;5.00;;
30243;SDS011;61465;53.652;9.792;2022-08-03T06:20:59;5.82;;;5.10;;
30243;SDS011;61465;53.652;9.792;2022-08-03T06:23:25;5.03;;;4.53;;
30243;SDS011;61465;53.652;9.792;2022-08-03T06:25:51;5.93;;;5.20;;
30243;SDS011;61465;53.652;9.792;2022-08-03T06:28:16;9.17;;;4.50;;
30243;SDS011;61465;53.652;9.792;2022-08-03T06:30:42;7.03;;;4.67;;
30243;SDS011;61465;53.652;9.792;2022-08-03T06:33:08;4.78;;;4.22;;
30243;SDS011;61465;53.652;9.792;2022-08-03T06:35:34;5.33;;;4.23;;
30243;SDS011;61465;53.652;9.792;2022-08-03T06:38:00;4.70;;;3.80;;
30243;SDS011;61465;53.652;9.792;2022-08-03T06:40:25;6.33;;;4.37;;
30243;SDS011;61465;53.652;9.792;2022-08-03T06:42:58;7.55;;;3.97;;
30243;SDS011;61465;53.652;9.792;2022-08-03T06:45:26;5.18;;;3.85;;
30243;SDS011;61465;53.652;9.792;2022-08-03T06:48:11;9.40;;;4.32;;
30243;SDS011;61465;53.652;9.792;2022-08-03T06:50:38;6.35;;;3.70;;
30243;SDS011;61465;53.652;9.792;2022-08-03T06:53:05;9.05;;;4.53;;
30243;SDS011;61465;53.652;9.792;2022-08-03T06:55:31;5.03;;;4.00;;
30243;SDS011;61465;53.652;9.792;2022-08-03T06:57:57;5.72;;;3.70;;
30243;SDS011;61465;53.652;9.792;2022-08-03T07:00:23;5.27;;;3.53;;
30243;SDS011;61465;53.652;9.792;2022-08-03T07:02:50;6.05;;;4.15;;
30243;SDS011;61465;53.652;9.792;2022-08-03T07:05:15;7.33;;;4.10;;
30243;SDS011;61465;53.652;9.792;2022-08-03T07:07:42;6.60;;;3.40;;
30243;SDS011;61465;53.652;9.792;2022-08-03T07:10:08;6.67;;;3.70;;
30243;SDS011;61465;53.652;9.792;2022-08-03T07:12:35;5.22;;;3.13;;
30243;SDS011;61465;53.652;9.792;2022-08-03T07:15:02;5.82;;;3.63;;
30243;SDS011;61465;53.652;9.792;2022-08-03T07:19:55;4.57;;;2.83;;
30243;SDS011;61465;53.652;9.792;2022-08-03T07:22:21;4.07;;;3.25;;
30243;SDS011;61465;53.652;9.792;2022-08-03T07:24:46;3.90;;;3.07;;
30243;SDS011;61465;53.652;9.792;2022-08-03T07:27:12;3.93;;;3.40;;
30243;SDS011;61465;53.652;9.792;2022-08-03T07:29:37;4.67;;;3.23;;
30243;SDS011;61465;53.652;9.792;2022-08-03T07:32:03;4.87;;;3.33;;
30243;SDS011;61465;53.652;9.792;2022-08-03T07:34:29;4.38;;;3.15;;
30243;SDS011;61465;53.652;9.792;2022-08-03T07:39:21;3.85;;;3.15;;
30243;SDS011;61465;53.652;9.792;2022-08-03T07:41:47;5.07;;;3.30;;
30243;SDS011;61465;53.652;9.792;2022-08-03T07:44:15;5.38;;;2.80;;
30243;SDS011;61465;53.652;9.792;2022-08-03T07:46:41;4.47;;;3.10;;
30243;SDS011;61465;53.652;9.792;2022-08-03T07:49:07;4.53;;;3.20;;
30243;SDS011;61465;53.652;9.792;2022-08-03T07:51:32;4.10;;;2.97;;
30243;SDS011;61465;53.652;9.792;2022-08-03T07:53:58;5.85;;;2.80;;
30243;SDS011;61465;53.652;9.792;2022-08-03T07:56:24;8.27;;;2.83;;
30243;SDS011;61465;53.652;9.792;2022-08-03T07:58:50;5.60;;;2.80;;
30243;SDS011;61465;53.652;9.792;2022-08-03T08:01:17;6.80;;;2.83;;
30243;SDS011;61465;53.652;9.792;2022-08-03T08:03:43;2.97;;;2.50;;
30243;SDS011;61465;53.652;9.792;2022-08-03T08:06:09;5.68;;;3.25;;
30243;SDS011;61465;53.652;9.792;2022-08-03T08:08:36;5.67;;;2.37;;
30243;SDS011;61465;53.652;9.792;2022-08-03T08:11:02;5.85;;;3.22;;
30243;SDS011;61465;53.652;9.792;2022-08-03T08:13:28;3.83;;;2.67;;
30243;SDS011;61465;53.652;9.792;2022-08-03T08:15:54;2.60;;;2.33;;
30243;SDS011;61465;53.652;9.792;2022-08-03T08:18:19;5.57;;;3.13;;
30243;SDS011;61465;53.652;9.792;2022-08-03T08:20:45;7.10;;;2.75;;
30243;SDS011;61465;53.652;9.792;2022-08-03T08:23:11;3.75;;;2.53;;
30243;SDS011;61465;53.652;9.792;2022-08-03T08:25:36;2.60;;;2.23;;
30243;SDS011;61465;53.652;9.792;2022-08-03T08:28:02;3.42;;;2.00;;
30243;SDS011;61465;53.652;9.792;2022-08-03T08:30:30;4.10;;;2.42;;
30243;SDS011;61465;53.652;9.792;2022-08-03T08:32:57;5.03;;;2.72;;
30243;SDS011;61465;53.652;9.792;2022-08-03T08:35:23;9.25;;;2.58;;
30243;SDS011;61465;53.652;9.792;2022-08-03T08:40:14;3.10;;;2.15;;
30243;SDS011;61465;53.652;9.792;2022-08-03T08:45:06;3.35;;;2.28;;
30243;SDS011;61465;53.652;9.792;2022-08-03T08:47:33;3.97;;;1.77;;
30243;SDS011;61465;53.652;9.792;2022-08-03T08:50:02;3.75;;;1.85;;
30243;SDS011;61465;53.652;9.792;2022-08-03T08:52:29;3.40;;;1.80;;
30243;SDS011;61465;53.652;9.792;2022-08-03T08:54:57;10.35;;;2.20;;
30243;SDS011;61465;53.652;9.792;2022-08-03T08:57:25;4.05;;;1.70;;
30243;SDS011;61465;53.652;9.792;2022-08-03T08:59:55;2.42;;;1.58;;
30243;SDS011;61465;53.652;9.792;2022-08-03T09:02:22;2.20;;;1.60;;
30243;SDS011;61465;53.652;9.792;2022-08-03T09:04:48;4.05;;;2.17;;
30243;SDS011;61465;53.652;9.792;2022-08-03T09:07:14;3.85;;;1.60;;
30243;SDS011;61465;53.652;9.792;2022-08-03T09:09:40;3.85;;;1.60;;
30243;SDS011;61465;53.652;9.792;2022-08-03T09:12:07;4.70;;;2.13;;
30243;SDS011;61465;53.652;9.792;2022-08-03T09:14:33;7.13;;;2.28;;
30243;SDS011;61465;53.652;9.792;2022-08-03T09:16:59;5.55;;;1.73;;
30243;SDS011;61465;53.652;9.792;2022-08-03T09:19:28;2.13;;;1.58;;
30243;SDS011;61465;53.652;9.792;2022-08-03T09:22:11;3.38;;;1.90;;
30243;SDS011;61465;53.652;9.792;2022-08-03T09:24:58;2.15;;;1.60;;
30243;SDS011;61465;53.652;9.792;2022-08-03T09:27:41;5.20;;;1.98;;
30243;SDS011;61465;53.652;9.792;2022-08-03T09:30:15;2.47;;;1.58;;
30243;SDS011;61465;53.652;9.792;2022-08-03T09:32:42;3.78;;;1.80;;
30243;SDS011;61465;53.652;9.792;2022-08-03T09:35:10;4.35;;;1.67;;
30243;SDS011;61465;53.652;9.792;2022-08-03T09:37:37;5.65;;;1.80;;
30243;SDS011;61465;53.652;9.792;2022-08-03T09:40:03;3.45;;;1.52;;
30243;SDS011;61465;53.652;9.792;2022-08-03T09:42:30;1.67;;;1.58;;
30243;SDS011;61465;53.652;9.792;2022-08-03T09:44:59;8.52;;;2.15;;
30243;SDS011;61465;53.652;9.792;2022-08-03T09:47:28;4.90;;;2.10;;
30243;SDS011;61465;53.652;9.792;2022-08-03T09:49:59;1.67;;;1.15;;
30243;SDS011;61465;53.652;9.792;2022-08-03T09:52:33;5.32;;;1.88;;
30243;SDS011;61465;53.652;9.792;2022-08-03T09:55:10;3.15;;;1.85;;
30243;SDS011;61465;53.652;9.792;2022-08-03T09:57:37;5.95;;;2.08;;
30243;SDS011;61465;53.652;9.792;2022-08-03T10:00:11;6.30;;;1.92;;
30243;SDS011;61465;53.652;9.792;2022-08-03T10:02:40;3.47;;;1.50;;
30243;SDS011;61465;53.652;9.792;2022-08-03T10:05:08;4.93;;;1.90;;
30243;SDS011;61465;53.652;9.792;2022-08-03T10:07:44;5.13;;;1.67;;
30243;SDS011;61465;53.652;9.792;2022-08-03T10:10:14;3.70;;;1.52;;
30243;SDS011;61465;53.652;9.792;2022-08-03T10:12:41;2.58;;;1.58;;
30243;SDS011;61465;53.652;9.792;2022-08-03T10:15:07;3.83;;;1.60;;
30243;SDS011;61465;53.652;9.792;2022-08-03T10:17:34;4.55;;;1.95;;
30243;SDS011;61465;53.652;9.792;2022-08-03T10:20:00;3.45;;;1.60;;
30243;SDS011;61465;53.652;9.792;2022-08-03T10:22:28;4.25;;;1.45;;
30243;SDS011;61465;53.652;9.792;2022-08-03T10:27:38;4.10;;;1.50;;
30243;SDS011;61465;53.652;9.792;2022-08-03T10:30:09;5.60;;;1.52;;
30243;SDS011;61465;53.652;9.792;2022-08-03T10:32:42;4.38;;;1.65;;
30243;SDS011;61465;53.652;9.792;2022-08-03T10:35:16;3.58;;;1.35;;
30243;SDS011;61465;53.652;9.792;2022-08-03T10:37:48;5.88;;;1.58;;
30243;SDS011;61465;53.652;9.792;2022-08-03T10:40:19;5.07;;;1.45;;
30243;SDS011;61465;53.652;9.792;2022-08-03T10:42:47;1.75;;;1.35;;
30243;SDS011;61465;53.652;9.792;2022-08-03T10:45:25;3.42;;;1.50;;
30243;SDS011;61465;53.652;9.792;2022-08-03T10:47:52;2.55;;;1.60;;
30243;SDS011;61465;53.652;9.792;2022-08-03T10:50:21;2.88;;;1.70;;
30243;SDS011;61465;53.652;9.792;2022-08-03T10:53:01;4.15;;;1.40;;
30243;SDS011;61465;53.652;9.792;2022-08-03T11:01:19;6.03;;;1.70;;
30243;SDS011;61465;53.652;9.792;2022-08-03T11:04:14;4.13;;;1.60;;
30243;SDS011;61465;53.652;9.792;2022-08-03T11:06:43;3.75;;;1.33;;
30243;SDS011;61465;53.652;9.792;2022-08-03T11:11:37;4.70;;;2.00;;
30243;SDS011;61465;53.652;9.792;2022-08-03T11:14:04;5.57;;;1.52;;
30243;SDS011;61465;53.652;9.792;2022-08-03T11:16:40;2.63;;;1.50;;
30243;SDS011;61465;53.652;9.792;2022-08-03T11:19:26;3.22;;;1.58;;
30243;SDS011;61465;53.652;9.792;2022-08-03T11:22:08;5.50;;;1.85;;
30243;SDS011;61465;53.652;9.792;2022-08-03T11:35:12;5.38;;;1.65;;
30243;SDS011;61465;53.652;9.792;2022-08-03T11:45:57;5.47;;;1.95;;
30243;SDS011;61465;53.652;9.792;2022-08-03T11:48:27;3.80;;;1.60;;
30243;SDS011;61465;53.652;9.792;2022-08-03T11:50:59;4.22;;;1.63;;
30243;SDS011;61465;53.652;9.792;2022-08-03T11:53:25;7.72;;;2.30;;
30243;SDS011;61465;53.652;9.792;2022-08-03T11:55:52;9.30;;;2.17;;
30243;SDS011;61465;53.652;9.792;2022-08-03T11:58:18;6.13;;;1.60;;
30243;SDS011;61465;53.652;9.792;2022-08-03T12:00:46;5.25;;;1.80;;
30243;SDS011;61465;53.652;9.792;2022-08-03T12:03:13;5.20;;;1.67;;
30243;SDS011;61465;53.652;9.792;2022-08-03T12:08:08;10.18;;;2.00;;
30243;SDS011;61465;53.652;9.792;2022-08-03T12:10:36;7.85;;;1.95;;
30243;SDS011;61465;53.652;9.792;2022-08-03T12:13:03;7.57;;;2.13;;
30243;SDS011;61465;53.652;9.792;2022-08-03T12:15:32;8.15;;;2.13;;
30243;SDS011;61465;53.652;9.792;2022-08-03T12:18:01;1.70;;;1.27;;
30243;SDS011;61465;53.652;9.792;2022-08-03T12:20:29;4.90;;;2.47;;
30243;SDS011;61465;53.652;9.792;2022-08-03T12:23:03;5.95;;;1.60;;
30243;SDS011;61465;53.652;9.792;2022-08-03T12:25:29;5.57;;;1.92;;
30243;SDS011;61465;53.652;9.792;2022-08-03T12:28:05;7.57;;;2.28;;
30243;SDS011;61465;53.652;9.792;2022-08-03T12:30:36;7.63;;;2.33;;
30243;SDS011;61465;53.652;9.792;2022-08-03T12:35:49;7.22;;;1.50;;
30243;SDS011;61465;53.652;9.792;2022-08-03T12:38:33;8.43;;;1.77;;
30243;SDS011;61465;53.652;9.792;2022-08-03T12:41:00;5.32;;;1.90;;
30243;SDS011;61465;53.652;9.792;2022-08-03T12:43:33;8.38;;;1.80;;
30243;SDS011;61465;53.652;9.792;2022-08-03T12:48:33;6.53;;;1.98;;
30243;SDS011;61465;53.652;9.792;2022-08-03T12:51:11;4.47;;;1.90;;
30243;SDS011;61465;53.652;9.792;2022-08-03T12:53:36;3.35;;;1.48;;
30243;SDS011;61465;53.652;9.792;2022-08-03T12:56:03;3.30;;;1.50;;
30243;SDS011;61465;53.652;9.792;2022-08-03T12:58:30;9.38;;;1.80;;
30243;SDS011;61465;53.652;9.792;2022-08-03T13:00:57;5.38;;;1.45;;
30243;SDS011;61465;53.652;9.792;2022-08-03T13:03:23;6.28;;;1.55;;
30243;SDS011;61465;53.652;9.792;2022-08-03T13:05:49;3.30;;;1.48;;
30243;SDS011;61465;53.652;9.792;2022-08-03T13:08:21;9.67;;;2.10;;
30243;SDS011;61465;53.652;9.792;2022-08-03T13:10:48;7.30;;;2.30;;
30243;SDS011;61465;53.652;9.792;2022-08-03T13:13:14;5.65;;;2.22;;
30243;SDS011;61465;53.652;9.792;2022-08-03T13:15:40;4.87;;;1.50;;
30243;SDS011;61465;53.652;9.792;2022-08-03T13:18:06;4.15;;;1.55;;
30243;SDS011;61465;53.652;9.792;2022-08-03T13:20:32;11.25;;;2.00;;
30243;SDS011;61465;53.652;9.792;2022-08-03T13:22:58;6.30;;;1.73;;
30243;SDS011;61465;53.652;9.792;2022-08-03T13:25:24;4.67;;;1.77;;
30243;SDS011;61465;53.652;9.792;2022-08-03T13:27:49;6.43;;;1.73;;
30243;SDS011;61465;53.652;9.792;2022-08-03T13:30:16;6.10;;;2.25;;
30243;SDS011;61465;53.652;9.792;2022-08-03T13:32:42;9.55;;;1.73;;
30243;SDS011;61465;53.652;9.792;2022-08-03T13:35:08;8.13;;;1.85;;
30243;SDS011;61465;53.652;9.792;2022-08-03T13:37:34;9.27;;;1.83;;
30243;SDS011;61465;53.652;9.792;2022-08-03T13:40:02;8.68;;;1.50;;
30243;SDS011;61465;53.652;9.792;2022-08-03T13:42:30;6.88;;;1.70;;
30243;SDS011;61465;53.652;9.792;2022-08-03T13:44:56;5.80;;;1.88;;
30243;SDS011;61465;53.652;9.792;2022-08-03T13:49:48;3.17;;;1.42;;
30243;SDS011;61465;53.652;9.792;2022-08-03T13:52:16;6.20;;;1.63;;
30243;SDS011;61465;53.652;9.792;2022-08-03T13:54:42;8.33;;;1.60;;
30243;SDS011;61465;53.652;9.792;2022-08-03T13:57:07;7.47;;;2.10;;
30243;SDS011;61465;53.652;9.792;2022-08-03T13:59:35;5.65;;;1.60;;
30243;SDS011;61465;53.652;9.792;2022-08-03T14:02:00;13.23;;;2.00;;
30243;SDS011;61465;53.652;9.792;2022-08-03T14:04:26;3.83;;;1.90;;
30243;SDS011;61465;53.652;9.792;2022-08-03T14:06:51;8.03;;;1.97;;
30243;SDS011;61465;53.652;9.792;2022-08-03T14:09:17;5.30;;;1.53;;
30243;SDS011;61465;53.652;9.792;2022-08-03T14:11:42;5.77;;;1.70;;
30243;SDS011;61465;53.652;9.792;2022-08-03T14:14:08;6.13;;;1.63;;
30243;SDS011;61465;53.652;9.792;2022-08-03T14:16:35;2.78;;;1.55;;
30243;SDS011;61465;53.652;9.792;2022-08-03T14:19:01;4.55;;;1.80;;
30243;SDS011;61465;53.652;9.792;2022-08-03T14:21:27;8.05;;;1.77;;
30243;SDS011;61465;53.652;9.792;2022-08-03T14:23:52;3.90;;;1.80;;
30243;SDS011;61465;53.652;9.792;2022-08-03T14:26:18;6.30;;;1.90;;
30243;SDS011;61465;53.652;9.792;2022-08-03T14:28:44;8.75;;;1.92;;
30243;SDS011;61465;53.652;9.792;2022-08-03T14:31:10;6.28;;;2.42;;
30243;SDS011;61465;53.652;9.792;2022-08-03T14:33:35;6.63;;;1.50;;
30243;SDS011;61465;53.652;9.792;2022-08-03T14:36:01;7.90;;;2.60;;
30243;SDS011;61465;53.652;9.792;2022-08-03T14:38:27;4.32;;;1.98;;
30243;SDS011;61465;53.652;9.792;2022-08-03T14:40:53;6.30;;;1.85;;
30243;SDS011;61465;53.652;9.792;2022-08-03T14:43:19;6.05;;;2.20;;
30243;SDS011;61465;53.652;9.792;2022-08-03T14:45:45;9.23;;;1.77;;
30243;SDS011;61465;53.652;9.792;2022-08-03T14:48:11;4.38;;;1.70;;
30243;SDS011;61465;53.652;9.792;2022-08-03T14:50:37;9.95;;;1.88;;
30243;SDS011;61465;53.652;9.792;2022-08-03T14:53:03;7.00;;;2.63;;
30243;SDS011;61465;53.652;9.792;2022-08-03T14:55:29;4.97;;;1.83;;
30243;SDS011;61465;53.652;9.792;2022-08-03T14:57:54;8.47;;;2.07;;
30243;SDS011;61465;53.652;9.792;2022-08-03T15:00:20;7.97;;;2.33;;
30243;SDS011;61465;53.652;9.792;2022-08-03T15:02:45;5.50;;;2.00;;
30243;SDS011;61465;53.652;9.792;2022-08-03T15:07:39;4.32;;;1.95;;
30243;SDS011;61465;53.652;9.792;2022-08-03T15:10:05;9.10;;;2.83;;
30243;SDS011;61465;53.652;9.792;2022-08-03T15:12:31;8.18;;;1.98;;
30243;SDS011;61465;53.652;9.792;2022-08-03T15:14:57;3.87;;;1.73;;
30243;SDS011;61465;53.652;9.792;2022-08-03T15:17:22;7.47;;;2.20;;
30243;SDS011;61465;53.652;9.792;2022-08-03T15:19:48;5.13;;;1.50;;
30243;SDS011;61465;53.652;9.792;2022-08-03T15:22:13;7.33;;;1.67;;
30243;SDS011;61465;53.652;9.792;2022-08-03T15:24:40;7.43;;;1.75;;
30243;SDS011;61465;53.652;9.792;2022-08-03T15:27:06;3.90;;;1.50;;
30243;SDS011;61465;53.652;9.792;2022-08-03T15:29:32;3.72;;;1.83;;
30243;SDS011;61465;53.652;9.792;2022-08-03T15:31:58;7.10;;;1.83;;
30243;SDS011;61465;53.652;9.792;2022-08-03T15:34:23;6.43;;;2.20;;
30243;SDS011;61465;53.652;9.792;2022-08-03T15:36:49;6.43;;;1.93;;
30243;SDS011;61465;53.652;9.792;2022-08-03T15:39:15;3.30;;;1.65;;
30243;SDS011;61465;53.652;9.792;2022-08-03T15:41:40;8.63;;;2.50;;
30243;SDS011;61465;53.652;9.792;2022-08-03T15:44:06;19.23;;;7.53;;
30243;SDS011;61465;53.652;9.792;2022-08-03T15:46:32;25.63;;;13.13;;
30243;SDS011;61465;53.652;9.792;2022-08-03T15:48:59;30.83;;;15.60;;
30243;SDS011;61465;53.652;9.792;2022-08-03T15:51:26;9.80;;;5.25;;
30243;SDS011;61465;53.652;9.792;2022-08-03T15:53:52;112.85;;;41.55;;
30243;SDS011;61465;53.652;9.792;2022-08-03T15:56:18;23.67;;;10.40;;